createdAt,value
2022-10-30T00:01:16.760Z,16.40
2022-10-30T00:03:44.102Z,16.50
2022-10-30T00:06:11.417Z,16.47
2022-10-30T00:08:38.733Z,15.60
2022-10-30T00:11:11.471Z,15.20
2022-10-30T00:13:40.101Z,16.33
2022-10-30T00:16:08.532Z,14.47
2022-10-30T00:18:37.603Z,13.57
2022-10-30T00:21:10.233Z,13.50
2022-10-30T00:23:37.590Z,14.20
2022-10-30T00:26:08.287Z,14.93
2022-10-30T00:28:35.628Z,14.60
2022-10-30T00:31:04.862Z,14.37
2022-10-30T00:33:32.203Z,13.40
2022-10-30T00:36:00.881Z,12.97
2022-10-30T00:38:28.172Z,14.63
2022-10-30T00:40:55.624Z,13.73
2022-10-30T00:43:32.680Z,13.83
2022-10-30T00:46:30.899Z,13.50
2022-10-30T00:49:03.906Z,13.43
2022-10-30T00:51:33.508Z,14.50
2022-10-30T00:54:05.198Z,13.93
2022-10-30T00:56:32.912Z,14.37
2022-10-30T00:59:05.098Z,15.07
2022-10-30T01:01:35.952Z,14.77
2022-10-30T01:04:05.577Z,15.63
2022-10-30T01:06:39.029Z,14.23
2022-10-30T01:09:06.633Z,14.40
2022-10-30T01:11:35.041Z,15.30
2022-10-30T01:14:08.501Z,14.10
2022-10-30T01:16:59.236Z,15.37
2022-10-30T01:20:06.404Z,15.43
2022-10-30T01:22:50.800Z,15.00
2022-10-30T01:25:47.538Z,14.57
2022-10-30T01:28:41.075Z,12.77
2022-10-30T01:31:43.247Z,13.33
2022-10-30T01:34:35.552Z,12.80
2022-10-30T01:37:26.850Z,13.23
2022-10-30T01:39:55.305Z,13.97
2022-10-30T01:42:41.321Z,12.63
2022-10-30T01:45:17.644Z,12.90
2022-10-30T01:48:02.107Z,11.93
2022-10-30T01:50:41.199Z,12.23
2022-10-30T01:53:28.680Z,12.17
2022-10-30T01:56:15.988Z,11.50
2022-10-30T01:59:09.410Z,10.97
2022-10-30T02:01:38.782Z,11.53
2022-10-30T02:04:09.596Z,10.87
2022-10-30T02:06:38.027Z,10.17
2022-10-30T02:09:06.130Z,10.87
2022-10-30T02:11:35.910Z,11.33
2022-10-30T02:14:06.543Z,11.60
2022-10-30T02:16:42.539Z,10.30
2022-10-30T02:19:09.984Z,10.20
2022-10-30T02:21:37.315Z,9.97
2022-10-30T02:24:05.005Z,10.40
2022-10-30T02:26:32.603Z,10.40
2022-10-30T02:29:02.544Z,9.87
2022-10-30T02:31:30.005Z,10.13
2022-10-30T02:33:57.305Z,10.20
2022-10-30T02:36:25.133Z,9.87
2022-10-30T02:38:55.151Z,10.37
2022-10-30T02:41:24.081Z,10.00
2022-10-30T02:43:53.796Z,10.23
2022-10-30T02:46:21.324Z,11.27
2022-10-30T02:48:49.514Z,10.97
2022-10-30T02:51:17.094Z,11.27
2022-10-30T02:53:44.925Z,9.97
2022-10-30T02:56:14.171Z,10.37
2022-10-30T02:58:43.279Z,10.07
2022-10-30T03:01:20.590Z,9.67
2022-10-30T03:03:51.194Z,9.10
2022-10-30T03:06:18.499Z,8.60
2022-10-30T03:08:45.811Z,7.90
2022-10-30T03:11:15.679Z,7.77
2022-10-30T03:13:44.489Z,8.27
2022-10-30T03:16:18.275Z,8.40
2022-10-30T03:18:46.896Z,8.40
2022-10-30T03:21:17.230Z,8.87
2022-10-30T03:23:45.955Z,7.47
2022-10-30T03:26:14.890Z,7.23
2022-10-30T03:28:54.771Z,7.70
2022-10-30T03:31:22.151Z,7.30
2022-10-30T03:34:06.865Z,6.77
2022-10-30T03:36:34.117Z,6.77
2022-10-30T03:39:01.753Z,6.50
2022-10-30T03:41:31.791Z,6.60
2022-10-30T03:43:59.196Z,6.57
2022-10-30T03:46:26.908Z,7.17
2022-10-30T03:49:01.095Z,6.57
2022-10-30T03:51:28.366Z,6.90
2022-10-30T03:53:55.961Z,6.50
2022-10-30T03:56:23.328Z,6.83
2022-10-30T03:58:54.982Z,7.90
2022-10-30T04:01:23.771Z,7.77
2022-10-30T04:03:57.593Z,9.73
2022-10-30T04:06:26.264Z,7.83
2022-10-30T04:08:55.563Z,7.57
2022-10-30T04:11:24.209Z,8.93
2022-10-30T04:13:51.501Z,8.70
2022-10-30T04:16:18.764Z,10.10
2022-10-30T04:18:46.034Z,10.13
2022-10-30T04:21:13.296Z,7.73
2022-10-30T04:23:40.885Z,7.97
2022-10-30T04:26:09.603Z,9.30
2022-10-30T04:28:39.867Z,9.57
2022-10-30T04:31:07.173Z,10.17
2022-10-30T04:33:34.666Z,7.90
2022-10-30T04:36:02.644Z,7.90
2022-10-30T04:38:32.089Z,9.40
2022-10-30T04:40:59.630Z,7.70
2022-10-30T04:43:41.419Z,8.23
2022-10-30T04:46:09.098Z,8.97
2022-10-30T04:48:37.533Z,9.43
2022-10-30T04:51:05.535Z,7.80
2022-10-30T04:53:33.209Z,8.60
2022-10-30T04:56:07.812Z,8.23
2022-10-30T04:58:35.135Z,7.70
2022-10-30T05:01:06.653Z,8.00
2022-10-30T05:03:35.073Z,9.20
2022-10-30T05:06:13.212Z,9.73
2022-10-30T05:08:40.677Z,9.83
2022-10-30T05:11:18.954Z,11.30
2022-10-30T05:13:47.761Z,12.03
2022-10-30T05:16:17.175Z,10.33
2022-10-30T05:18:44.688Z,10.00
2022-10-30T05:21:12.993Z,9.20
2022-10-30T05:23:40.710Z,10.80
2022-10-30T05:26:08.123Z,11.03
2022-10-30T05:28:36.800Z,11.70
2022-10-30T05:31:05.230Z,11.67
2022-10-30T05:33:52.430Z,10.80
2022-10-30T05:36:20.146Z,10.47
2022-10-30T05:38:48.090Z,10.47
2022-10-30T05:41:24.759Z,9.93
2022-10-30T05:43:52.021Z,10.43
2022-10-30T05:46:19.393Z,11.00
2022-10-30T05:48:47.514Z,12.80
2022-10-30T05:51:14.954Z,15.07
2022-10-30T05:53:49.626Z,13.40
2022-10-30T05:56:17.302Z,12.50
2022-10-30T05:58:44.673Z,14.57
2022-10-30T06:01:11.962Z,12.50
2022-10-30T06:03:44.472Z,12.60
2022-10-30T06:06:12.947Z,16.43
2022-10-30T06:08:40.386Z,16.37
2022-10-30T06:11:26.602Z,14.97
2022-10-30T06:13:56.209Z,15.27
2022-10-30T06:16:35.578Z,15.33
2022-10-30T06:19:19.069Z,16.03
2022-10-30T06:21:49.498Z,16.57
2022-10-30T06:24:33.696Z,15.37
2022-10-30T06:27:23.838Z,16.50
2022-10-30T06:29:51.115Z,16.57
2022-10-30T06:32:18.499Z,17.03
2022-10-30T06:34:46.453Z,15.93
2022-10-30T06:37:15.136Z,15.20
2022-10-30T06:39:42.448Z,15.93
2022-10-30T06:42:28.374Z,17.10
2022-10-30T06:45:20.612Z,16.37
2022-10-30T06:47:48.565Z,17.47
2022-10-30T06:50:17.942Z,16.20
2022-10-30T06:52:45.492Z,16.77
2022-10-30T06:55:13.197Z,16.90
2022-10-30T06:57:59.476Z,16.53
2022-10-30T07:00:45.511Z,15.53
2022-10-30T07:03:33.506Z,15.07
2022-10-30T07:06:01.085Z,14.97
2022-10-30T07:08:28.433Z,15.10
2022-10-30T07:10:58.942Z,15.17
2022-10-30T07:13:45.130Z,14.10
2022-10-30T07:16:44.918Z,14.13
2022-10-30T07:19:13.442Z,14.13
2022-10-30T07:21:41.723Z,14.40
2022-10-30T07:24:09.249Z,12.57
2022-10-30T07:27:14.773Z,12.73
2022-10-30T07:29:46.649Z,12.30
2022-10-30T07:32:21.135Z,12.90
2022-10-30T07:35:09.148Z,12.90
2022-10-30T07:38:07.731Z,12.70
2022-10-30T07:40:53.630Z,11.93
2022-10-30T07:43:39.795Z,12.03
2022-10-30T07:46:25.640Z,12.23
2022-10-30T07:49:11.540Z,12.77
2022-10-30T07:51:48.702Z,13.57
2022-10-30T07:54:16.653Z,13.10
2022-10-30T07:56:44.133Z,12.20
2022-10-30T07:59:37.673Z,12.60
2022-10-30T08:02:40.681Z,12.90
2022-10-30T08:05:15.949Z,10.53
2022-10-30T08:08:09.567Z,11.43
2022-10-30T08:10:38.283Z,11.73
2022-10-30T08:13:05.578Z,12.80
2022-10-30T08:15:33.418Z,13.80
2022-10-30T08:18:01.837Z,14.17
2022-10-30T08:20:29.313Z,13.80
2022-10-30T08:22:58.400Z,13.53
2022-10-30T08:25:29.228Z,13.70
2022-10-30T08:28:00.807Z,13.43
2022-10-30T08:30:37.604Z,13.37
2022-10-30T08:33:09.930Z,13.17
2022-10-30T08:35:58.096Z,13.50
2022-10-30T08:38:28.102Z,14.23
2022-10-30T08:41:15.869Z,13.97
2022-10-30T08:43:49.291Z,13.87
2022-10-30T08:46:18.371Z,14.77
2022-10-30T08:48:45.631Z,15.17
2022-10-30T08:51:12.960Z,14.70
2022-10-30T08:53:44.930Z,15.43
2022-10-30T08:56:15.182Z,15.20
2022-10-30T08:58:52.816Z,14.60
2022-10-30T09:01:20.372Z,14.40
2022-10-30T09:04:08.009Z,15.30
2022-10-30T09:06:55.307Z,14.47
2022-10-30T09:09:39.024Z,15.17
2022-10-30T09:12:07.272Z,15.60
2022-10-30T09:14:41.475Z,16.17
2022-10-30T09:17:10.141Z,15.40
2022-10-30T09:19:39.414Z,15.13
2022-10-30T09:22:07.435Z,16.63
2022-10-30T09:24:40.314Z,16.60
2022-10-30T09:27:27.850Z,14.90
2022-10-30T09:29:57.711Z,16.77
2022-10-30T09:32:30.049Z,16.73
2022-10-30T09:35:06.336Z,16.17
2022-10-30T09:37:39.060Z,14.80
2022-10-30T09:40:44.489Z,15.73
2022-10-30T09:43:35.898Z,14.83
2022-10-30T09:46:03.342Z,15.67
2022-10-30T09:48:46.048Z,16.67
2022-10-30T09:52:04.369Z,15.93
2022-10-30T09:54:46.250Z,16.50
2022-10-30T09:57:37.118Z,16.70
2022-10-30T10:00:20.326Z,16.07
2022-10-30T10:03:16.446Z,15.93
2022-10-30T10:06:06.167Z,13.97
2022-10-30T10:09:17.063Z,15.70
2022-10-30T10:12:18.885Z,14.93
2022-10-30T10:14:48.539Z,15.30
2022-10-30T10:17:25.591Z,14.97
2022-10-30T10:19:59.632Z,16.63
2022-10-30T10:22:39.595Z,16.47
2022-10-30T10:25:12.583Z,11.43
2022-10-30T10:28:14.962Z,9.37
2022-10-30T10:30:46.616Z,8.23
2022-10-30T10:33:38.159Z,8.10
2022-10-30T10:36:08.208Z,8.10
2022-10-30T10:39:06.110Z,7.70
2022-10-30T10:42:03.107Z,7.93
2022-10-30T10:44:53.773Z,9.13
2022-10-30T10:47:45.684Z,7.67
2022-10-30T10:50:29.272Z,8.23
2022-10-30T10:52:58.687Z,8.37
2022-10-30T10:55:31.804Z,8.53
2022-10-30T10:58:16.838Z,7.70
2022-10-30T11:00:45.899Z,8.40
2022-10-30T11:03:57.650Z,8.37
2022-10-30T11:06:28.477Z,8.63
2022-10-30T11:09:16.507Z,8.10
2022-10-30T11:11:44.686Z,8.97
2022-10-30T11:14:19.053Z,8.50
2022-10-30T11:17:03.842Z,8.40
2022-10-30T11:19:32.133Z,9.00
2022-10-30T11:22:00.323Z,10.63
2022-10-30T11:24:34.867Z,9.53
2022-10-30T11:27:23.810Z,9.40
2022-10-30T11:30:01.399Z,9.67
2022-10-30T11:32:31.127Z,9.40
2022-10-30T11:35:08.317Z,8.93
2022-10-30T11:37:40.914Z,8.97
2022-10-30T11:40:18.395Z,9.27
2022-10-30T11:43:00.484Z,10.43
2022-10-30T11:45:38.140Z,10.00
2022-10-30T11:48:17.255Z,9.40
2022-10-30T11:50:48.152Z,10.20
2022-10-30T11:53:49.148Z,9.40
2022-10-30T11:56:20.051Z,10.77
2022-10-30T11:58:52.257Z,11.10
2022-10-30T12:01:23.837Z,10.03
2022-10-30T12:03:53.250Z,10.70
2022-10-30T12:06:26.621Z,34.90
2022-10-30T12:09:20.035Z,18.03
2022-10-30T12:11:48.152Z,14.30
2022-10-30T12:14:21.639Z,17.53
2022-10-30T12:16:55.309Z,13.60
2022-10-30T12:19:24.473Z,15.80
2022-10-30T12:21:57.403Z,10.93
2022-10-30T12:24:27.777Z,11.80
2022-10-30T12:26:56.322Z,12.70
2022-10-30T12:29:48.021Z,12.97
2022-10-30T12:32:19.594Z,12.40
2022-10-30T12:35:00.364Z,13.87
2022-10-30T12:37:37.519Z,13.33
2022-10-30T12:40:31.684Z,11.77
2022-10-30T12:43:12.228Z,13.63
2022-10-30T12:45:45.002Z,14.80
2022-10-30T12:48:30.475Z,14.13
2022-10-30T12:51:14.289Z,20.23
2022-10-30T12:54:15.968Z,17.17
2022-10-30T12:56:48.037Z,13.43
2022-10-30T12:59:30.224Z,15.17
2022-10-30T13:02:00.061Z,12.17
2022-10-30T13:04:34.365Z,11.67
2022-10-30T13:07:10.957Z,12.50
2022-10-30T13:10:16.577Z,12.00
2022-10-30T13:12:47.838Z,13.50
2022-10-30T13:15:25.817Z,14.13
2022-10-30T13:17:53.349Z,12.17
2022-10-30T13:20:21.738Z,12.00
2022-10-30T13:22:56.877Z,12.33
2022-10-30T13:25:33.232Z,11.53
2022-10-30T13:28:06.167Z,12.00
2022-10-30T13:30:40.148Z,13.60
2022-10-30T13:33:16.506Z,13.67
2022-10-30T13:35:55.477Z,16.83
2022-10-30T13:38:50.300Z,14.67
2022-10-30T13:41:34.909Z,13.90
2022-10-30T13:44:17.183Z,13.03
2022-10-30T13:46:50.242Z,12.10
2022-10-30T13:49:36.263Z,13.40
2022-10-30T13:52:03.518Z,13.53
2022-10-30T13:54:33.945Z,13.77
2022-10-30T13:57:14.653Z,13.57
2022-10-30T14:00:02.285Z,12.90
2022-10-30T14:02:45.199Z,13.53
2022-10-30T14:05:31.305Z,13.97
2022-10-30T14:08:05.175Z,13.57
2022-10-30T14:10:54.551Z,12.93
2022-10-30T14:13:26.983Z,13.90
2022-10-30T14:16:06.251Z,14.50
2022-10-30T14:19:07.751Z,13.40
2022-10-30T14:21:50.945Z,14.13
2022-10-30T14:24:28.166Z,15.77
2022-10-30T14:27:20.698Z,16.07
2022-10-30T14:29:49.922Z,14.60
2022-10-30T14:32:20.115Z,14.37
2022-10-30T14:34:50.358Z,12.93
2022-10-30T14:37:31.140Z,14.63
2022-10-30T14:40:18.783Z,13.97
2022-10-30T14:42:57.213Z,12.03
2022-10-30T14:45:46.842Z,12.90
2022-10-30T14:48:52.289Z,12.70
2022-10-30T14:51:29.212Z,12.93
2022-10-30T14:54:02.399Z,13.80
2022-10-30T14:56:47.332Z,13.27
2022-10-30T14:59:14.683Z,14.43
2022-10-30T15:02:03.732Z,13.60
2022-10-30T15:04:59.031Z,14.03
2022-10-30T15:07:45.481Z,17.23
2022-10-30T15:10:21.526Z,17.67
2022-10-30T15:13:04.061Z,16.83
2022-10-30T15:15:32.253Z,14.50
2022-10-30T15:18:07.372Z,15.03
2022-10-30T15:20:36.203Z,15.43
2022-10-30T15:23:21.632Z,16.33
2022-10-30T15:25:52.453Z,16.17
2022-10-30T15:28:22.993Z,16.10
2022-10-30T15:31:06.962Z,16.67
2022-10-30T15:33:38.003Z,18.17
2022-10-30T15:36:05.944Z,15.30
2022-10-30T15:38:33.189Z,15.73
2022-10-30T15:41:03.154Z,16.27
2022-10-30T15:43:37.694Z,14.93
2022-10-30T15:46:11.825Z,16.97
2022-10-30T15:48:44.891Z,15.43
2022-10-30T15:51:15.501Z,15.03
2022-10-30T15:53:51.336Z,16.53
2022-10-30T15:56:44.403Z,16.57
2022-10-30T15:59:23.131Z,14.27
2022-10-30T16:01:53.485Z,16.17
2022-10-30T16:04:36.775Z,17.23
2022-10-30T16:07:24.200Z,16.50
2022-10-30T16:10:01.006Z,17.77
2022-10-30T16:12:34.410Z,15.80
2022-10-30T16:15:07.841Z,15.90
2022-10-30T16:17:35.269Z,15.73
2022-10-30T16:20:04.175Z,14.30
2022-10-30T16:22:37.815Z,14.50
2022-10-30T16:25:10.141Z,14.57
2022-10-30T16:27:45.359Z,15.10
2022-10-30T16:30:17.343Z,15.60
2022-10-30T16:32:53.147Z,15.53
2022-10-30T16:35:24.009Z,15.37
2022-10-30T16:37:52.371Z,15.53
2022-10-30T16:40:27.364Z,15.40
2022-10-30T16:43:00.393Z,15.60
2022-10-30T16:45:34.049Z,15.90
2022-10-30T16:48:09.449Z,15.83
2022-10-30T16:50:38.928Z,15.67
2022-10-30T16:53:17.766Z,15.43
2022-10-30T16:55:45.561Z,17.40
2022-10-30T16:58:14.854Z,15.57
2022-10-30T17:00:50.527Z,15.73
2022-10-30T17:03:25.001Z,16.47
2022-10-30T17:06:07.575Z,16.90
2022-10-30T17:08:43.747Z,16.20
2022-10-30T17:11:19.941Z,15.10
2022-10-30T17:13:53.155Z,15.83
2022-10-30T17:16:30.302Z,15.67
2022-10-30T17:19:21.922Z,16.40
2022-10-30T17:21:53.101Z,15.37
2022-10-30T17:24:31.998Z,18.50
2022-10-30T17:27:01.882Z,19.23
2022-10-30T17:29:38.595Z,18.60
2022-10-30T17:32:20.338Z,18.13
2022-10-30T17:34:49.070Z,19.53
2022-10-30T17:37:16.355Z,20.03
2022-10-30T17:39:43.690Z,19.57
2022-10-30T17:42:11.637Z,21.40
2022-10-30T17:44:39.592Z,19.97
2022-10-30T17:47:20.849Z,21.87
2022-10-30T17:49:49.516Z,18.80
2022-10-30T17:52:21.604Z,19.50
2022-10-30T17:54:49.239Z,20.40
2022-10-30T17:57:16.654Z,19.93
2022-10-30T17:59:44.053Z,19.37
2022-10-30T18:02:22.956Z,18.53
2022-10-30T18:04:52.555Z,19.23
2022-10-30T18:07:19.822Z,19.20
2022-10-30T18:09:47.447Z,19.60
2022-10-30T18:12:17.675Z,19.97
2022-10-30T18:14:49.239Z,19.83
2022-10-30T18:17:17.735Z,18.50
2022-10-30T18:19:49.948Z,18.37
2022-10-30T18:22:17.803Z,17.37
2022-10-30T18:24:45.298Z,18.43
2022-10-30T18:27:12.702Z,18.77
2022-10-30T18:29:39.935Z,18.77
2022-10-30T18:32:09.806Z,18.83
2022-10-30T18:34:37.471Z,17.10
2022-10-30T18:37:05.156Z,16.50
2022-10-30T18:39:32.547Z,15.47
2022-10-30T18:42:00.145Z,16.00
2022-10-30T18:44:27.394Z,15.63
2022-10-30T18:46:58.660Z,15.33
2022-10-30T18:49:32.007Z,14.97
2022-10-30T18:51:59.254Z,16.23
2022-10-30T18:54:27.330Z,16.53
2022-10-30T18:56:54.986Z,15.20
2022-10-30T18:59:22.522Z,15.43
2022-10-30T19:01:50.092Z,16.57
2022-10-30T19:04:21.846Z,16.70
2022-10-30T19:06:49.800Z,14.83
2022-10-30T19:09:17.026Z,13.63
2022-10-30T19:11:44.711Z,15.47
2022-10-30T19:14:14.056Z,16.83
2022-10-30T19:16:41.952Z,15.10
2022-10-30T19:19:09.257Z,15.90
2022-10-30T19:21:36.650Z,16.77
2022-10-30T19:24:12.576Z,15.73
2022-10-30T19:26:40.187Z,17.57
2022-10-30T19:29:07.536Z,18.73
2022-10-30T19:31:34.808Z,18.37
2022-10-30T19:34:02.238Z,20.23
2022-10-30T19:36:33.732Z,17.77
2022-10-30T19:39:08.672Z,14.80
2022-10-30T19:41:37.341Z,14.40
2022-10-30T19:44:05.349Z,13.70
2022-10-30T19:46:33.337Z,13.83
2022-10-30T19:49:00.822Z,13.90
2022-10-30T19:51:29.016Z,14.93
2022-10-30T19:53:56.527Z,16.57
2022-10-30T19:56:24.131Z,15.40
2022-10-30T19:58:51.566Z,14.77
2022-10-30T20:01:19.120Z,14.83
2022-10-30T20:03:46.542Z,16.57
2022-10-30T20:06:15.886Z,15.83
2022-10-30T20:08:43.841Z,15.27
2022-10-30T20:11:11.228Z,17.77
2022-10-30T20:13:38.486Z,19.53
2022-10-30T20:16:06.306Z,18.23
2022-10-30T20:18:35.398Z,21.63
2022-10-30T20:21:08.132Z,18.93
2022-10-30T20:23:35.796Z,18.50
2022-10-30T20:26:25.607Z,16.67
2022-10-30T20:28:53.736Z,13.97
2022-10-30T20:31:20.977Z,14.70
2022-10-30T20:33:48.371Z,13.90
2022-10-30T20:36:15.626Z,14.77
2022-10-30T20:38:42.882Z,16.13
2022-10-30T20:41:23.676Z,16.87
2022-10-30T20:43:51.759Z,14.70
2022-10-30T20:46:20.009Z,15.97
2022-10-30T20:48:47.705Z,15.40
2022-10-30T20:51:15.576Z,16.03
2022-10-30T20:53:42.967Z,15.73
2022-10-30T20:56:11.769Z,16.27
2022-10-30T20:58:39.909Z,15.20
2022-10-30T21:01:07.597Z,16.23
2022-10-30T21:03:34.925Z,16.37
2022-10-30T21:06:02.397Z,15.23
2022-10-30T21:08:33.966Z,15.03
2022-10-30T21:11:03.082Z,15.07
2022-10-30T21:13:30.906Z,14.43
2022-10-30T21:16:07.381Z,14.50
2022-10-30T21:18:34.852Z,13.47
2022-10-30T21:21:04.489Z,13.27
2022-10-30T21:23:31.935Z,13.53
2022-10-30T21:26:05.492Z,15.70
2022-10-30T21:28:32.758Z,15.13
2022-10-30T21:31:05.696Z,16.00
2022-10-30T21:33:34.857Z,14.87
2022-10-30T21:36:16.333Z,16.43
2022-10-30T21:38:44.600Z,13.90
2022-10-30T21:41:20.583Z,13.43
2022-10-30T21:43:55.888Z,14.83
2022-10-30T21:46:24.971Z,15.70
2022-10-30T21:48:52.622Z,15.00
2022-10-30T21:51:22.435Z,13.47
2022-10-30T21:53:49.835Z,12.57
2022-10-30T21:56:20.272Z,13.70
2022-10-30T21:58:48.079Z,12.73
2022-10-30T22:01:19.693Z,12.27
2022-10-30T22:03:47.767Z,11.50
2022-10-30T22:06:17.478Z,12.10
2022-10-30T22:08:49.544Z,12.83
2022-10-30T22:11:18.145Z,13.20
2022-10-30T22:13:45.625Z,11.97
2022-10-30T22:16:14.424Z,13.00
2022-10-30T22:18:42.023Z,13.40
2022-10-30T22:21:12.008Z,13.30
2022-10-30T22:23:40.490Z,12.30
2022-10-30T22:26:14.010Z,12.40
2022-10-30T22:28:42.671Z,13.60
2022-10-30T22:31:18.206Z,13.27
2022-10-30T22:33:45.581Z,12.67
2022-10-30T22:36:22.237Z,13.50
2022-10-30T22:38:56.290Z,12.10
2022-10-30T22:41:24.574Z,11.40
2022-10-30T22:43:55.502Z,11.43
2022-10-30T22:46:29.041Z,10.83
2022-10-30T22:48:57.676Z,10.70
2022-10-30T22:51:25.806Z,11.57
2022-10-30T22:53:59.031Z,11.50
2022-10-30T22:56:28.815Z,11.73
2022-10-30T22:58:56.454Z,13.80
2022-10-30T23:01:27.396Z,12.00
2022-10-30T23:04:00.756Z,12.07
2022-10-30T23:06:29.735Z,11.33
2022-10-30T23:08:59.961Z,10.33
2022-10-30T23:11:28.202Z,9.87
2022-10-30T23:13:56.370Z,10.10
2022-10-30T23:16:25.250Z,10.30
2022-10-30T23:18:56.584Z,10.27
2022-10-30T23:21:26.600Z,10.80
2022-10-30T23:23:54.255Z,10.90
2022-10-30T23:26:25.821Z,10.70
2022-10-30T23:28:54.841Z,10.83
2022-10-30T23:31:24.334Z,10.73
2022-10-30T23:33:54.112Z,10.97
2022-10-30T23:36:22.356Z,11.40
2022-10-30T23:38:58.328Z,11.17
2022-10-30T23:41:28.516Z,11.67
2022-10-30T23:43:57.871Z,11.20
2022-10-30T23:46:26.173Z,10.67
2022-10-30T23:48:54.126Z,12.17
2022-10-30T23:51:21.744Z,11.50
2022-10-30T23:53:49.198Z,10.60
2022-10-30T23:56:17.517Z,11.10
2022-10-30T23:58:50.699Z,11.30
